createdAt,value
2018-04-10T00:01:56.769Z,21.92
2018-04-10T00:04:24.254Z,22.83
2018-04-10T00:06:51.684Z,21.23
2018-04-10T00:09:28.795Z,20.55
2018-04-10T00:11:56.227Z,23.38
2018-04-10T00:14:23.682Z,21.87
2018-04-10T00:16:51.134Z,20.65
2018-04-10T00:19:18.605Z,16.23
2018-04-10T00:21:46.061Z,21.60
2018-04-10T00:24:13.618Z,19.50
2018-04-10T00:26:41.083Z,29.08
2018-04-10T00:29:08.659Z,23.52
2018-04-10T00:31:36.111Z,22.60
2018-04-10T00:34:03.576Z,27.27
2018-04-10T00:36:31.139Z,25.25
2018-04-10T00:38:58.596Z,23.23
2018-04-10T00:41:26.036Z,23.57
2018-04-10T00:43:53.524Z,24.60
2018-04-10T00:46:20.956Z,23.35
2018-04-10T00:48:48.428Z,27.05
2018-04-10T00:51:17.014Z,27.50
2018-04-10T00:53:44.459Z,26.87
2018-04-10T00:56:11.910Z,24.47
2018-04-10T00:58:39.357Z,23.00
2018-04-10T01:01:06.927Z,26.03
2018-04-10T01:03:34.402Z,24.93
2018-04-10T01:06:01.856Z,26.47
2018-04-10T01:08:29.447Z,26.98
2018-04-10T01:10:56.885Z,25.35
2018-04-10T01:13:24.338Z,29.53
2018-04-10T01:15:51.787Z,27.13
2018-04-10T01:18:19.280Z,25.23
2018-04-10T01:20:46.732Z,29.17
2018-04-10T01:23:14.264Z,29.52
2018-04-10T01:25:41.709Z,27.27
2018-04-10T01:28:09.273Z,26.95
2018-04-10T01:30:36.731Z,27.53
2018-04-10T01:33:04.315Z,30.43
2018-04-10T01:35:32.085Z,27.00
2018-04-10T01:37:59.540Z,26.90
2018-04-10T01:40:26.997Z,27.73
2018-04-10T01:42:54.448Z,28.03
2018-04-10T01:45:21.923Z,28.35
2018-04-10T01:47:49.396Z,29.97
2018-04-10T01:50:16.830Z,28.10
2018-04-10T01:52:44.324Z,30.53
2018-04-10T01:55:11.779Z,31.97
2018-04-10T01:57:39.218Z,31.83
2018-04-10T02:00:06.662Z,29.35
2018-04-10T02:02:34.116Z,30.07
2018-04-10T02:05:01.545Z,30.40
2018-04-10T02:07:29.017Z,30.37
2018-04-10T02:10:13.991Z,29.60
2018-04-10T02:12:41.437Z,28.87
2018-04-10T02:15:08.900Z,33.77
2018-04-10T02:17:36.319Z,31.13
2018-04-10T02:20:23.630Z,30.40
2018-04-10T02:23:08.428Z,31.53
2018-04-10T02:25:47.349Z,31.53
2018-04-10T02:28:14.806Z,30.70
2018-04-10T02:30:47.891Z,31.13
2018-04-10T02:33:21.141Z,33.40
2018-04-10T02:35:54.569Z,31.77
2018-04-10T02:38:27.570Z,30.83
2018-04-10T02:41:00.050Z,34.77
2018-04-10T02:43:27.501Z,33.27
2018-04-10T02:45:55.921Z,32.63
2018-04-10T02:48:23.375Z,29.27
2018-04-10T02:50:50.903Z,34.17
2018-04-10T02:53:18.330Z,31.47
2018-04-10T02:55:45.780Z,29.83
2018-04-10T02:58:13.217Z,33.33
2018-04-10T03:00:40.701Z,35.93
2018-04-10T03:03:08.178Z,32.87
2018-04-10T03:05:35.621Z,33.17
2018-04-10T03:08:03.071Z,33.53
2018-04-10T03:10:30.521Z,37.83
2018-04-10T03:12:58.015Z,33.97
2018-04-10T03:15:25.441Z,34.53
2018-04-10T03:17:53.921Z,32.80
2018-04-10T03:20:21.999Z,39.17
2018-04-10T03:22:49.529Z,37.70
2018-04-10T03:25:16.988Z,37.93
2018-04-10T03:27:44.469Z,34.53
2018-04-10T03:30:11.935Z,40.47
2018-04-10T03:32:39.420Z,32.80
2018-04-10T03:35:06.881Z,34.87
2018-04-10T03:37:34.359Z,34.83
2018-04-10T03:40:06.791Z,37.93
2018-04-10T03:42:34.263Z,35.47
2018-04-10T03:45:01.717Z,34.53
2018-04-10T03:47:29.195Z,36.43
2018-04-10T03:49:56.629Z,40.83
2018-04-10T03:52:24.094Z,40.43
2018-04-10T03:54:51.541Z,36.67
2018-04-10T03:59:51.684Z,35.30
2018-04-10T04:02:19.135Z,37.33
2018-04-10T04:04:46.566Z,44.17
2018-04-10T04:07:14.033Z,37.07
2018-04-10T04:09:41.454Z,35.00
2018-04-10T04:12:08.894Z,35.47
2018-04-10T04:14:36.334Z,40.10
2018-04-10T04:17:15.681Z,37.83
2018-04-10T04:19:55.112Z,42.13
2018-04-10T04:22:34.326Z,38.07
2018-04-10T04:25:01.761Z,41.87
2018-04-10T04:27:29.252Z,40.33
2018-04-10T04:29:56.721Z,38.10
2018-04-10T04:32:24.148Z,38.93
2018-04-10T04:34:51.710Z,41.07
2018-04-10T04:37:19.194Z,40.97
2018-04-10T04:39:46.630Z,41.73
2018-04-10T04:42:14.126Z,41.70
2018-04-10T04:44:41.658Z,42.60
2018-04-10T04:47:09.088Z,47.53
2018-04-10T04:49:36.558Z,45.00
2018-04-10T04:52:04.125Z,50.40
2018-04-10T04:54:31.892Z,41.17
2018-04-10T04:56:59.400Z,48.10
2018-04-10T04:59:26.874Z,45.63
2018-04-10T05:01:54.896Z,42.60
2018-04-10T05:04:22.366Z,44.63
2018-04-10T05:06:49.834Z,41.97
2018-04-10T05:09:17.330Z,41.40
2018-04-10T05:11:44.852Z,43.73
2018-04-10T05:14:12.298Z,42.47
2018-04-10T05:16:39.940Z,45.00
2018-04-10T05:19:07.390Z,49.67
2018-04-10T05:21:34.871Z,45.53
2018-04-10T05:24:02.313Z,42.60
2018-04-10T05:26:29.818Z,43.43
2018-04-10T05:28:57.296Z,45.03
2018-04-10T05:31:24.766Z,43.93
2018-04-10T05:33:52.285Z,40.63
2018-04-10T05:36:19.881Z,47.83
2018-04-10T05:38:47.375Z,43.33
2018-04-10T05:41:14.947Z,40.87
2018-04-10T05:43:42.397Z,49.27
2018-04-10T05:46:09.858Z,43.40
2018-04-10T05:48:37.351Z,44.77
2018-04-10T05:51:04.814Z,46.83
2018-04-10T05:53:32.300Z,47.90
2018-04-10T05:55:59.763Z,39.53
2018-04-10T05:58:27.195Z,43.47
2018-04-10T06:00:54.673Z,45.97
2018-04-10T06:03:22.129Z,48.70
2018-04-10T06:05:49.599Z,46.83
2018-04-10T06:08:17.633Z,44.40
2018-04-10T06:10:45.093Z,43.67
2018-04-10T06:13:12.580Z,49.80
2018-04-10T06:15:40.023Z,44.70
2018-04-10T06:18:07.491Z,46.40
2018-04-10T06:20:34.980Z,47.30
2018-04-10T06:23:02.451Z,48.30
2018-04-10T06:25:29.941Z,47.53
2018-04-10T06:27:57.386Z,45.50
2018-04-10T06:30:24.820Z,41.73
2018-04-10T06:32:52.262Z,44.77
2018-04-10T06:35:19.800Z,42.53
2018-04-10T06:37:47.313Z,38.43
2018-04-10T06:40:14.839Z,44.13
2018-04-10T06:42:42.310Z,47.63
2018-04-10T06:45:09.965Z,45.00
2018-04-10T06:47:37.457Z,46.10
2018-04-10T06:50:04.971Z,46.90
2018-04-10T06:52:32.482Z,49.17
2018-04-10T06:55:00.009Z,59.10
2018-04-10T06:57:27.506Z,53.33
2018-04-10T06:59:56.026Z,50.53
2018-04-10T07:02:23.683Z,48.43
2018-04-10T07:04:51.155Z,46.20
2018-04-10T07:07:18.646Z,46.67
2018-04-10T07:09:46.176Z,46.97
2018-04-10T07:12:13.732Z,43.63
2018-04-10T07:14:41.210Z,44.90
2018-04-10T07:17:08.644Z,43.40
2018-04-10T07:19:36.157Z,47.87
2018-04-10T07:22:03.628Z,52.47
2018-04-10T07:24:31.119Z,48.43
2018-04-10T07:26:59.987Z,46.30
2018-04-10T07:29:32.468Z,42.87
2018-04-10T07:31:59.992Z,55.07
2018-04-10T07:34:27.490Z,51.00
2018-04-10T07:36:54.978Z,50.77
2018-04-10T07:39:22.464Z,46.77
2018-04-10T07:41:50.066Z,46.17
2018-04-10T07:44:17.634Z,51.83
2018-04-10T07:46:45.106Z,54.53
2018-04-10T07:49:12.657Z,46.27
2018-04-10T07:51:40.150Z,54.37
2018-04-10T07:54:07.623Z,50.80
2018-04-10T07:56:35.158Z,42.53
2018-04-10T07:59:02.636Z,51.40
2018-04-10T08:01:30.127Z,42.88
2018-04-10T08:03:57.637Z,56.07
2018-04-10T08:06:25.183Z,44.50
2018-04-10T08:08:52.660Z,51.20
2018-04-10T08:11:22.614Z,41.47
2018-04-10T08:13:52.734Z,51.13
2018-04-10T08:16:21.077Z,42.00
2018-04-10T08:18:49.564Z,56.43
2018-04-10T08:21:18.856Z,40.47
2018-04-10T08:23:48.041Z,56.93
2018-04-10T08:26:16.183Z,43.80
2018-04-10T08:28:43.739Z,58.13
2018-04-10T08:48:26.647Z,56.97
2018-04-10T08:50:54.203Z,53.97
2018-04-10T08:55:56.306Z,43.40
2018-04-10T08:58:23.825Z,59.08
2018-04-10T09:00:51.401Z,46.85
2018-04-10T09:03:18.882Z,61.90
2018-04-10T09:05:46.458Z,47.00
2018-04-10T09:08:13.930Z,61.75
2018-04-10T09:10:41.448Z,44.83
2018-04-10T09:13:08.998Z,62.67
2018-04-10T09:15:36.458Z,44.92
2018-04-10T09:18:03.900Z,66.28
2018-04-10T09:20:31.425Z,46.97
2018-04-10T09:22:58.882Z,59.08
2018-04-10T09:25:27.312Z,62.50
2018-04-10T09:27:54.783Z,44.28
2018-04-10T09:30:22.228Z,59.53
2018-04-10T09:32:49.700Z,48.47
2018-04-10T09:35:17.164Z,44.45
2018-04-10T09:37:44.689Z,56.22
2018-04-10T09:40:12.147Z,42.80
2018-04-10T09:42:39.681Z,41.25
2018-04-10T09:45:07.206Z,44.78
2018-04-10T09:47:34.724Z,38.35
2018-04-10T09:50:02.254Z,40.88
2018-04-10T09:52:29.748Z,36.58
2018-04-10T09:54:57.203Z,41.47
2018-04-10T09:57:24.733Z,37.90
2018-04-10T09:59:54.060Z,39.20
2018-04-10T10:02:22.085Z,36.20
2018-04-10T10:04:49.596Z,35.08
2018-04-10T10:07:17.089Z,34.97
2018-04-10T10:09:44.547Z,32.45
2018-04-10T10:12:12.074Z,27.42
2018-04-10T10:14:39.577Z,29.52
2018-04-10T10:17:07.033Z,27.67
2018-04-10T10:19:34.505Z,24.65
2018-04-10T10:22:01.974Z,31.37
2018-04-10T10:24:29.459Z,26.95
2018-04-10T10:26:56.923Z,30.37
2018-04-10T10:29:24.449Z,30.58
2018-04-10T10:31:51.907Z,30.37
2018-04-10T10:34:19.375Z,29.33
2018-04-10T10:36:46.826Z,28.17
2018-04-10T10:39:14.298Z,23.50
2018-04-10T10:41:41.788Z,23.20
2018-04-10T10:44:09.337Z,23.38
2018-04-10T10:46:36.826Z,19.65
2018-04-10T10:49:04.314Z,24.12
2018-04-10T10:51:31.773Z,21.62
2018-04-10T10:53:59.246Z,21.65
2018-04-10T10:56:26.740Z,21.48
2018-04-10T10:58:54.237Z,17.08
2018-04-10T11:01:21.701Z,19.60
2018-04-10T11:03:49.139Z,16.48
2018-04-10T11:06:16.615Z,16.52
2018-04-10T11:08:44.075Z,14.18
2018-04-10T11:11:11.573Z,13.35
2018-04-10T11:13:39.085Z,13.38
2018-04-10T11:16:06.562Z,15.10
2018-04-10T11:18:34.031Z,16.92
2018-04-10T11:21:01.469Z,12.05
2018-04-10T11:23:28.922Z,10.30
2018-04-10T11:25:56.402Z,12.20
2018-04-10T11:28:27.587Z,12.68
2018-04-10T11:30:55.352Z,9.75
2018-04-10T11:33:22.848Z,10.13
2018-04-10T11:35:50.363Z,12.45
2018-04-10T11:38:17.803Z,9.93
2018-04-10T11:40:45.280Z,10.93
2018-04-10T11:43:12.780Z,12.02
2018-04-10T11:45:40.260Z,9.18
2018-04-10T11:48:07.721Z,11.00
2018-04-10T11:50:35.179Z,12.25
2018-04-10T13:23:44.150Z,6.22
2018-04-10T13:26:11.676Z,6.70
2018-04-10T13:28:39.132Z,5.43
2018-04-10T13:31:06.602Z,8.52
2018-04-10T13:33:34.063Z,8.95
2018-04-10T13:36:01.531Z,11.70
2018-04-10T13:38:29.006Z,6.18
2018-04-10T13:40:56.513Z,8.95
2018-04-10T13:43:24.014Z,6.82
2018-04-10T13:45:51.476Z,5.57
2018-04-10T13:48:18.924Z,7.25
2018-04-10T13:50:46.365Z,6.15
2018-04-10T13:53:13.840Z,6.12
2018-04-10T13:55:41.281Z,4.43
2018-04-10T13:58:08.723Z,2.37
2018-04-10T14:00:36.202Z,9.38
2018-04-10T14:03:03.906Z,6.07
2018-04-10T14:05:31.374Z,6.22
2018-04-10T14:07:58.804Z,5.30
2018-04-10T14:10:26.304Z,4.32
2018-04-10T14:12:53.778Z,7.30
2018-04-10T14:15:21.228Z,7.87
2018-04-10T14:17:48.681Z,7.85
2018-04-10T14:20:16.217Z,5.10
2018-04-10T14:22:43.670Z,7.85
2018-04-10T14:25:11.121Z,4.90
2018-04-10T14:27:38.567Z,8.63
2018-04-10T14:30:06.045Z,4.43
2018-04-10T14:32:34.417Z,6.43
2018-04-10T14:35:02.090Z,5.53
2018-04-10T14:37:29.604Z,3.33
2018-04-10T14:39:57.220Z,6.30
2018-04-10T14:42:24.704Z,4.35
2018-04-10T14:44:52.118Z,6.15
2018-04-10T14:47:19.551Z,5.37
2018-04-10T14:49:46.985Z,6.32
2018-04-10T14:52:14.448Z,6.00
2018-04-10T14:54:41.917Z,6.65
2018-04-10T14:57:09.357Z,8.75
2018-04-10T14:59:37.641Z,6.55
2018-04-10T15:02:05.077Z,6.78
2018-04-10T15:04:32.589Z,5.75
2018-04-10T15:07:00.044Z,7.40
2018-04-10T15:09:27.476Z,7.53
2018-04-10T15:11:54.931Z,6.28
2018-04-10T15:14:22.375Z,4.28
2018-04-10T15:16:49.852Z,6.12
2018-04-10T15:19:17.344Z,3.85
2018-04-10T15:21:44.815Z,4.53
2018-04-10T15:24:12.316Z,3.58
2018-04-10T15:26:39.818Z,4.32
2018-04-10T15:29:07.271Z,4.10
2018-04-10T15:31:34.782Z,5.68
2018-04-10T15:34:02.248Z,5.93
2018-04-10T15:36:29.708Z,4.07
2018-04-10T15:38:57.176Z,5.10
2018-04-10T15:41:24.662Z,3.10
2018-04-10T15:43:52.138Z,5.82
2018-04-10T15:46:19.589Z,6.45
2018-04-10T15:48:47.097Z,5.50
2018-04-10T15:51:14.606Z,3.92
2018-04-10T15:53:42.161Z,7.30
2018-04-10T15:56:09.653Z,4.18
2018-04-10T15:58:37.147Z,2.75
2018-04-10T16:01:04.609Z,5.72
2018-04-10T16:03:32.097Z,3.25
2018-04-10T16:05:59.565Z,6.82
2018-04-10T16:08:27.022Z,3.45
2018-04-10T16:10:54.557Z,10.98
2018-04-10T16:13:22.042Z,5.15
2018-04-10T16:15:49.566Z,5.75
2018-04-10T16:18:17.108Z,5.40
2018-04-10T16:20:44.594Z,3.78
2018-04-10T16:23:12.168Z,2.47
2018-04-10T16:25:39.644Z,2.83
2018-04-10T16:28:07.185Z,5.78
2018-04-10T16:30:34.712Z,5.85
2018-04-10T16:33:02.283Z,5.68
2018-04-10T16:35:29.996Z,4.15
2018-04-10T16:37:57.600Z,6.25
2018-04-10T16:40:25.123Z,3.33
2018-04-10T16:42:52.736Z,3.62
2018-04-10T16:45:20.226Z,5.35
2018-04-10T16:47:48.011Z,2.30
2018-04-10T16:50:15.616Z,6.35
2018-04-10T16:52:43.124Z,4.72
2018-04-10T16:55:10.640Z,4.87
2018-04-10T16:57:38.140Z,8.30
2018-04-10T17:00:05.619Z,6.40
2018-04-10T17:02:33.101Z,5.32
2018-04-10T17:05:00.761Z,3.53
2018-04-10T17:07:28.477Z,4.18
2018-04-10T17:09:56.083Z,3.92
2018-04-10T17:12:23.947Z,3.80
2018-04-10T17:14:51.419Z,5.45
2018-04-10T17:17:19.860Z,6.15
2018-04-10T17:19:49.911Z,6.05
2018-04-10T17:22:17.903Z,4.72
2018-04-10T17:24:45.761Z,6.47
2018-04-10T17:27:13.217Z,5.47
2018-04-10T17:29:40.741Z,4.07
2018-04-10T17:32:08.255Z,2.87
2018-04-10T17:34:35.743Z,5.37
2018-04-10T17:37:03.203Z,4.68
2018-04-10T17:39:30.692Z,6.82
2018-04-10T17:41:58.223Z,6.20
2018-04-10T17:44:25.799Z,3.78
2018-04-10T17:46:53.463Z,5.00
2018-04-10T17:54:48.047Z,6.87
2018-04-10T17:57:15.607Z,4.45
2018-04-10T17:59:43.162Z,9.57
2018-04-10T18:02:10.657Z,3.92
2018-04-10T18:04:38.154Z,3.72
2018-04-10T18:07:05.627Z,3.50
2018-04-10T18:09:33.118Z,6.00
2018-04-10T18:12:00.608Z,3.37
2018-04-10T18:14:28.136Z,2.72
2018-04-10T18:16:55.730Z,5.28
2018-04-10T18:19:23.287Z,5.45
2018-04-10T18:21:50.807Z,4.05
2018-04-10T18:24:18.355Z,7.72
2018-04-10T18:26:45.947Z,6.55
2018-04-10T18:29:13.433Z,4.78
2018-04-10T18:31:40.935Z,3.53
2018-04-10T18:34:09.417Z,4.50
2018-04-10T18:36:37.013Z,5.50
2018-04-10T18:39:05.470Z,4.50
2018-04-10T18:53:08.421Z,8.25
2018-04-10T18:55:36.950Z,4.50
2018-04-10T18:58:04.489Z,7.22
2018-04-10T19:00:55.937Z,5.47
2018-04-10T19:03:23.991Z,3.85
2018-04-10T19:05:51.749Z,5.47
2018-04-10T19:08:19.515Z,6.15
2018-04-10T19:10:47.347Z,4.68
2018-04-10T19:13:19.071Z,6.03
2018-04-10T19:15:47.571Z,4.82
2018-04-10T19:18:15.440Z,5.85
2018-04-10T19:20:42.997Z,6.35
2018-04-10T19:23:10.516Z,6.72
2018-04-10T19:25:38.070Z,8.55
2018-04-10T19:28:06.610Z,5.82
2018-04-10T19:30:39.163Z,6.12
2018-04-10T19:33:07.235Z,6.97
2018-04-10T19:35:34.794Z,6.65
2018-04-10T19:38:02.276Z,5.72
2018-04-10T19:40:29.846Z,7.53
2018-04-10T19:42:57.355Z,4.70
2018-04-10T19:45:25.025Z,6.72
2018-04-10T19:47:52.559Z,6.68
2018-04-10T19:50:21.580Z,5.68
2018-04-10T19:52:49.171Z,4.85
2018-04-10T19:55:16.763Z,6.47
2018-04-10T19:57:44.309Z,4.68
2018-04-10T20:00:11.920Z,5.30
2018-04-10T20:02:40.279Z,4.15
2018-04-10T20:05:07.811Z,5.05
2018-04-10T20:07:35.383Z,4.18
2018-04-10T20:10:02.916Z,4.70
2018-04-10T20:12:30.432Z,6.12
2018-04-10T20:14:59.057Z,8.52
2018-04-10T20:17:26.671Z,4.30
2018-04-10T20:19:54.242Z,7.32
2018-04-10T20:22:21.783Z,5.82
2018-04-10T20:24:49.263Z,4.85
2018-04-10T20:27:16.864Z,5.93
2018-04-10T20:29:44.635Z,4.50
2018-04-10T20:32:13.111Z,7.30
2018-04-10T20:34:40.652Z,7.10
2018-04-10T20:37:08.145Z,4.00
2018-04-10T20:39:35.659Z,7.62
2018-04-10T20:42:03.186Z,5.50
2018-04-10T20:44:31.377Z,3.42
2018-04-10T20:46:59.036Z,3.10
2018-04-10T20:49:26.582Z,4.93
2018-04-10T20:51:54.149Z,5.25
2018-04-10T20:54:21.686Z,5.97
2018-04-10T20:56:49.278Z,5.30
2018-04-10T20:59:16.820Z,7.43
2018-04-10T21:01:44.532Z,4.78
2018-04-10T21:04:12.134Z,3.53
2018-04-10T21:06:39.868Z,8.48
2018-04-10T21:09:07.467Z,3.70
2018-04-10T21:11:40.013Z,7.75
2018-04-10T21:14:07.516Z,7.03
2018-04-10T21:16:37.811Z,6.70
2018-04-10T21:19:05.303Z,3.92
2018-04-10T21:21:42.475Z,5.62
2018-04-10T21:24:10.237Z,6.20
2018-04-10T21:26:38.507Z,5.97
2018-04-10T21:29:07.171Z,5.55
2018-04-10T21:31:34.709Z,9.50
2018-04-10T21:34:03.014Z,6.80
2018-04-10T21:36:30.519Z,4.80
2018-04-10T21:38:58.097Z,6.82
2018-04-10T21:41:25.569Z,5.80
2018-04-10T21:43:54.056Z,7.22
2018-04-10T21:46:21.535Z,3.87
2018-04-10T21:48:49.026Z,8.35
2018-04-10T21:51:16.504Z,5.93
2018-04-10T21:53:44.019Z,3.80
2018-04-10T21:56:11.504Z,6.37
2018-04-10T21:58:39.336Z,5.30
2018-04-10T22:01:06.982Z,4.82
2018-04-10T22:03:34.448Z,7.05
2018-04-10T22:06:01.970Z,4.55
2018-04-10T22:08:29.511Z,6.68
2018-04-10T22:10:57.050Z,4.07
2018-04-10T22:13:24.518Z,7.87
2018-04-10T22:15:52.087Z,4.65
2018-04-10T22:18:19.605Z,5.80
2018-04-10T22:20:47.089Z,6.62
2018-04-10T22:23:14.535Z,4.85
2018-04-10T22:25:43.696Z,4.85
2018-04-10T22:28:11.629Z,5.35
2018-04-10T22:30:39.059Z,8.75
2018-04-10T22:33:07.395Z,6.53
2018-04-10T22:35:34.847Z,8.70
2018-04-10T22:38:02.312Z,5.45
2018-04-10T22:40:29.813Z,4.93
2018-04-10T22:42:57.414Z,5.18
2018-04-10T22:45:24.888Z,5.70
2018-04-10T22:47:52.391Z,5.75
2018-04-10T22:50:19.856Z,4.78
2018-04-10T22:52:47.345Z,7.47
2018-04-10T22:55:14.883Z,6.03
2018-04-10T22:57:42.408Z,4.57
2018-04-10T23:00:09.874Z,6.57
2018-04-10T23:02:37.481Z,6.95
2018-04-10T23:05:05.037Z,5.80
2018-04-10T23:07:32.738Z,4.55
2018-04-10T23:10:00.193Z,7.68
2018-04-10T23:12:27.719Z,6.78
2018-04-10T23:14:55.193Z,4.40
2018-04-10T23:17:22.703Z,6.93
2018-04-10T23:19:50.167Z,4.20
2018-04-10T23:22:17.639Z,5.65
2018-04-10T23:24:45.089Z,4.57
2018-04-10T23:27:12.543Z,5.90
2018-04-10T23:29:40.011Z,5.53
2018-04-10T23:32:07.469Z,7.18
2018-04-10T23:34:34.920Z,3.83
2018-04-10T23:37:02.446Z,8.55
2018-04-10T23:39:29.867Z,6.07
2018-04-10T23:41:57.345Z,3.80
2018-04-10T23:44:24.799Z,7.12
2018-04-10T23:46:52.279Z,6.72
2018-04-10T23:49:19.741Z,5.78
2018-04-10T23:51:47.241Z,7.47
2018-04-10T23:54:14.731Z,9.43
2018-04-10T23:56:42.245Z,7.22
2018-04-10T23:59:09.678Z,4.78
